createdAt,value
2018-06-15T00:00:02.418Z,8.23
2018-06-15T00:02:31.940Z,6.13
2018-06-15T00:05:00.123Z,6.23
2018-06-15T00:07:28.257Z,7.33
2018-06-15T00:09:57.022Z,8.30
2018-06-15T00:12:25.277Z,6.03
2018-06-15T00:14:53.424Z,5.07
2018-06-15T00:17:21.766Z,6.33
2018-06-15T00:19:49.963Z,4.80
2018-06-15T00:22:18.124Z,4.90
2018-06-15T00:24:46.310Z,10.67
2018-06-15T00:27:14.456Z,4.93
2018-06-15T00:29:42.915Z,6.00
2018-06-15T00:32:11.068Z,5.40
2018-06-15T00:34:39.289Z,6.10
2018-06-15T00:37:07.594Z,8.63
2018-06-15T00:39:35.919Z,6.40
2018-06-15T00:42:04.108Z,12.47
2018-06-15T00:44:32.288Z,8.57
2018-06-15T00:47:00.681Z,7.23
2018-06-15T00:49:28.850Z,7.90
2018-06-15T00:51:57.155Z,12.20
2018-06-15T00:54:25.440Z,8.93
2018-06-15T00:57:05.130Z,10.33
2018-06-15T00:59:33.366Z,13.87
2018-06-15T01:02:01.555Z,16.67
2018-06-15T01:04:29.924Z,11.50
2018-06-15T01:06:58.078Z,13.60
2018-06-15T01:09:26.467Z,12.20
2018-06-15T01:11:54.576Z,14.43
2018-06-15T01:14:22.784Z,20.13
2018-06-15T01:16:50.920Z,12.17
2018-06-15T01:19:20.805Z,12.87
2018-06-15T01:21:48.963Z,14.00
2018-06-15T01:24:17.129Z,15.23
2018-06-15T01:26:45.250Z,18.93
2018-06-15T01:29:13.491Z,13.00
2018-06-15T01:31:42.542Z,12.80
2018-06-15T01:34:10.755Z,13.63
2018-06-15T01:36:39.161Z,14.00
2018-06-15T01:39:08.229Z,13.57
2018-06-15T01:41:36.707Z,20.53
2018-06-15T01:44:05.496Z,13.47
2018-06-15T01:46:34.791Z,14.83
2018-06-15T01:49:02.906Z,11.43
2018-06-15T01:51:37.555Z,12.43
2018-06-15T01:54:05.703Z,13.50
2018-06-15T01:56:33.896Z,14.17
2018-06-15T01:59:02.177Z,12.73
2018-06-15T02:01:30.587Z,12.67
2018-06-15T02:03:58.730Z,15.90
2018-06-15T02:06:26.938Z,11.30
2018-06-15T02:08:54.914Z,14.27
2018-06-15T02:11:24.380Z,15.47
2018-06-15T02:13:52.494Z,11.53
2018-06-15T02:16:20.646Z,10.57
2018-06-15T02:18:49.700Z,10.67
2018-06-15T02:21:17.945Z,12.50
2018-06-15T02:23:46.288Z,13.07
2018-06-15T02:26:14.462Z,13.47
2018-06-15T02:28:42.543Z,13.63
2018-06-15T02:31:10.836Z,15.07
2018-06-15T02:33:39.082Z,16.10
2018-06-15T02:36:07.455Z,16.33
2018-06-15T02:38:36.422Z,16.93
2018-06-15T02:41:04.612Z,15.07
2018-06-15T02:43:32.768Z,13.17
2018-06-15T02:46:00.949Z,15.23
2018-06-15T02:48:29.932Z,17.30
2018-06-15T02:50:58.151Z,22.53
2018-06-15T02:53:27.388Z,14.73
2018-06-15T02:55:55.361Z,15.53
2018-06-15T02:58:23.491Z,15.87
2018-06-15T03:00:52.115Z,16.30
2018-06-15T03:03:20.962Z,16.83
2018-06-15T03:05:49.092Z,15.80
2018-06-15T03:08:17.314Z,14.40
2018-06-15T03:10:45.491Z,18.53
2018-06-15T03:13:13.636Z,14.43
2018-06-15T03:15:41.804Z,16.03
2018-06-15T03:18:09.938Z,15.97
2018-06-15T03:20:38.128Z,17.20
2018-06-15T03:23:06.708Z,16.67
2018-06-15T03:25:34.914Z,14.57
2018-06-15T03:28:03.045Z,15.20
2018-06-15T03:30:31.254Z,19.10
2018-06-15T03:32:59.418Z,16.77
2018-06-15T03:35:27.587Z,14.13
2018-06-15T03:37:55.910Z,14.73
2018-06-15T03:40:24.005Z,14.63
2018-06-15T03:42:52.224Z,17.83
2018-06-15T03:45:20.440Z,17.33
2018-06-15T03:47:48.570Z,11.97
2018-06-15T03:50:16.677Z,14.97
2018-06-15T03:52:44.813Z,17.47
2018-06-15T03:55:13.064Z,18.20
2018-06-15T03:57:41.139Z,18.50
2018-06-15T04:00:09.555Z,12.87
2018-06-15T04:02:37.955Z,18.73
2018-06-15T04:05:06.115Z,16.27
2018-06-15T04:07:34.377Z,21.23
2018-06-15T04:10:02.478Z,14.03
2018-06-15T04:12:30.647Z,16.07
2018-06-15T04:14:58.791Z,13.83
2018-06-15T04:17:26.915Z,13.00
2018-06-15T04:19:55.123Z,20.47
2018-06-15T04:22:23.257Z,13.10
2018-06-15T04:24:51.481Z,15.63
2018-06-15T04:27:19.686Z,13.10
2018-06-15T04:29:47.917Z,11.90
2018-06-15T04:32:16.114Z,12.57
2018-06-15T04:34:44.292Z,13.80
2018-06-15T04:37:15.506Z,17.17
2018-06-15T04:39:44.638Z,14.93
2018-06-15T04:42:12.800Z,12.30
2018-06-15T04:44:42.295Z,14.50
2018-06-15T04:47:10.647Z,14.63
2018-06-15T04:49:39.110Z,13.93
2018-06-15T04:52:07.335Z,14.20
2018-06-15T04:54:35.570Z,15.70
2018-06-15T04:57:03.783Z,13.33
2018-06-15T04:59:31.955Z,14.70
2018-06-15T05:02:00.190Z,16.40
2018-06-15T05:04:28.316Z,14.33
2018-06-15T05:06:56.547Z,16.10
2018-06-15T05:09:24.732Z,14.93
2018-06-15T05:11:53.091Z,15.20
2018-06-15T05:14:21.353Z,14.20
2018-06-15T05:16:49.617Z,19.70
2018-06-15T05:19:17.908Z,15.93
2018-06-15T05:21:46.272Z,14.50
2018-06-15T05:24:14.665Z,12.13
2018-06-15T05:26:42.833Z,13.53
2018-06-15T05:29:11.074Z,15.40
2018-06-15T05:31:39.242Z,14.90
2018-06-15T05:34:07.583Z,15.10
2018-06-15T05:36:35.857Z,18.97
2018-06-15T05:39:05.871Z,15.90
2018-06-15T05:41:34.175Z,15.57
2018-06-15T05:44:02.384Z,16.70
2018-06-15T05:46:30.714Z,15.43
2018-06-15T05:48:58.931Z,20.00
2018-06-15T05:51:27.261Z,16.50
2018-06-15T05:53:55.422Z,13.63
2018-06-15T05:56:23.698Z,14.57
2018-06-15T05:58:51.901Z,14.83
2018-06-15T06:01:20.047Z,15.43
2018-06-15T06:03:48.315Z,13.80
2018-06-15T06:06:16.601Z,14.93
2018-06-15T06:08:44.802Z,22.70
2018-06-15T06:11:12.987Z,20.50
2018-06-15T06:13:41.196Z,17.33
2018-06-15T06:16:09.409Z,15.70
2018-06-15T06:18:37.749Z,16.60
2018-06-15T06:21:06.018Z,14.10
2018-06-15T06:23:34.218Z,14.13
2018-06-15T06:26:02.494Z,12.50
2018-06-15T06:28:30.671Z,17.47
2018-06-15T06:30:58.988Z,17.43
2018-06-15T06:33:27.303Z,22.70
2018-06-15T06:35:56.693Z,19.30
2018-06-15T06:38:24.870Z,19.13
2018-06-15T06:40:53.227Z,20.27
2018-06-15T06:43:21.650Z,19.33
2018-06-15T06:45:49.811Z,15.10
2018-06-15T06:48:18.005Z,19.60
2018-06-15T06:50:46.139Z,22.67
2018-06-15T06:53:14.300Z,16.30
2018-06-15T06:55:42.490Z,18.67
2018-06-15T06:58:10.731Z,19.00
2018-06-15T07:00:38.924Z,19.00
2018-06-15T07:03:07.257Z,14.20
2018-06-15T07:05:35.526Z,13.93
2018-06-15T07:08:03.803Z,13.30
2018-06-15T07:10:32.009Z,18.77
2018-06-15T07:13:00.299Z,29.37
2018-06-15T07:15:29.691Z,18.63
2018-06-15T07:17:58.068Z,13.93
2018-06-15T07:20:26.291Z,21.73
2018-06-15T07:22:54.504Z,18.93
2018-06-15T07:25:22.702Z,18.23
2018-06-15T07:27:50.873Z,16.83
2018-06-15T07:30:19.088Z,18.10
2018-06-15T07:32:47.340Z,16.00
2018-06-15T07:35:15.551Z,20.33
2018-06-15T07:37:43.701Z,14.40
2018-06-15T07:40:11.901Z,15.57
2018-06-15T07:42:40.152Z,15.47
2018-06-15T07:47:42.976Z,22.10
2018-06-15T07:50:11.309Z,14.90
2018-06-15T07:52:39.402Z,13.83
2018-06-15T07:55:07.597Z,15.83
2018-06-15T07:57:35.950Z,17.73
2018-06-15T08:00:04.779Z,16.57
2018-06-15T08:02:33.080Z,12.80
2018-06-15T08:05:01.387Z,14.80
2018-06-15T08:07:30.026Z,19.00
2018-06-15T08:09:58.459Z,18.33
2018-06-15T08:12:26.810Z,16.20
2018-06-15T08:14:54.983Z,12.80
2018-06-15T08:17:23.279Z,14.63
2018-06-15T08:19:51.457Z,18.00
2018-06-15T08:22:19.702Z,18.20
2018-06-15T08:24:47.897Z,11.10
2018-06-15T08:27:16.065Z,17.40
2018-06-15T08:29:46.198Z,11.33
2018-06-15T08:32:14.404Z,9.30
2018-06-15T08:34:42.604Z,13.13
2018-06-15T08:37:11.557Z,13.17
2018-06-15T08:39:39.764Z,19.83
2018-06-15T08:42:08.023Z,15.93
2018-06-15T08:44:36.514Z,13.63
2018-06-15T08:47:04.778Z,14.30
2018-06-15T08:49:32.968Z,19.20
2018-06-15T08:52:01.169Z,13.77
2018-06-15T08:54:29.355Z,16.63
2018-06-15T08:56:57.547Z,11.80
2018-06-15T08:59:25.678Z,16.53
2018-06-15T09:01:53.931Z,11.43
2018-06-15T09:04:22.273Z,13.90
2018-06-15T09:06:50.492Z,12.07
2018-06-15T09:09:19.673Z,9.80
2018-06-15T09:11:47.929Z,10.85
2018-06-15T09:14:16.216Z,10.60
2018-06-15T09:16:44.396Z,10.17
2018-06-15T09:19:13.059Z,10.10
2018-06-15T09:21:41.223Z,11.43
2018-06-15T09:24:11.030Z,12.70
2018-06-15T09:26:39.218Z,10.83
2018-06-15T09:29:07.660Z,7.83
2018-06-15T09:31:35.899Z,9.27
2018-06-15T09:34:04.285Z,8.27
2018-06-15T09:36:32.472Z,6.93
2018-06-15T09:39:00.663Z,7.43
2018-06-15T09:41:28.908Z,7.90
2018-06-15T09:43:57.234Z,10.50
2018-06-15T09:46:25.774Z,8.20
2018-06-15T09:48:54.946Z,5.77
2018-06-15T09:51:23.192Z,7.47
2018-06-15T09:53:52.400Z,6.87
2018-06-15T09:56:20.592Z,6.90
2018-06-15T09:58:53.209Z,12.30
2018-06-15T10:01:21.691Z,6.10
2018-06-15T10:03:50.105Z,8.73
2018-06-15T10:06:18.335Z,6.53
2018-06-15T10:08:46.593Z,5.47
2018-06-15T10:11:14.870Z,6.00
2018-06-15T10:13:43.012Z,5.07
2018-06-15T10:16:11.203Z,8.67
2018-06-15T10:18:39.374Z,7.47
2018-06-15T10:21:07.538Z,5.33
2018-06-15T10:23:35.782Z,5.80
2018-06-15T10:26:04.237Z,8.73
2018-06-15T10:28:32.347Z,5.53
2018-06-15T10:31:00.583Z,4.50
2018-06-15T10:33:28.797Z,3.77
2018-06-15T10:35:57.041Z,6.63
2018-06-15T10:38:25.242Z,5.93
2018-06-15T10:40:53.407Z,3.50
2018-06-15T10:43:22.296Z,4.00
2018-06-15T10:45:51.271Z,2.00
2018-06-15T10:48:19.381Z,2.17
2018-06-15T10:50:47.554Z,2.30
2018-06-15T10:53:15.788Z,2.50
2018-06-15T10:55:44.078Z,2.80
2018-06-15T10:58:12.472Z,2.30
2018-06-15T11:00:40.629Z,3.60
2018-06-15T11:03:08.816Z,3.30
2018-06-15T11:05:37.336Z,2.80
2018-06-15T11:08:05.900Z,4.53
2018-06-15T11:10:34.069Z,5.97
2018-06-15T11:13:02.216Z,4.07
2018-06-15T11:15:30.394Z,4.27
2018-06-15T11:17:58.511Z,10.63
2018-06-15T11:20:26.678Z,3.90
2018-06-15T11:22:54.817Z,6.53
2018-06-15T11:25:22.956Z,4.10
2018-06-15T11:27:51.293Z,8.80
2018-06-15T11:30:19.535Z,6.10
2018-06-15T11:32:48.655Z,3.57
2018-06-15T11:35:16.881Z,3.60
2018-06-15T11:37:45.161Z,3.50
2018-06-15T11:40:13.393Z,3.13
2018-06-15T11:42:41.665Z,3.43
2018-06-15T11:45:09.924Z,3.97
2018-06-15T11:47:38.158Z,2.93
2018-06-15T11:50:06.536Z,5.27
2018-06-15T11:52:34.848Z,3.80
2018-06-15T11:55:02.946Z,3.77
2018-06-15T11:57:31.181Z,4.30
2018-06-15T11:59:59.462Z,3.47
2018-06-15T12:02:27.642Z,6.93
2018-06-15T12:04:55.866Z,3.63
2018-06-15T12:07:24.198Z,4.73
2018-06-15T12:09:52.405Z,5.80
2018-06-15T12:12:20.683Z,4.40
2018-06-15T12:14:49.437Z,8.30
2018-06-15T12:17:18.119Z,9.47
2018-06-15T12:19:46.382Z,5.10
2018-06-15T12:22:14.702Z,7.50
2018-06-15T12:24:44.295Z,6.73
2018-06-15T12:27:13.563Z,10.80
2018-06-15T12:29:42.361Z,14.13
2018-06-15T12:32:11.927Z,6.50
2018-06-15T12:34:42.053Z,8.93
2018-06-15T12:37:11.537Z,6.40
2018-06-15T12:39:39.822Z,4.77
2018-06-15T12:42:08.007Z,5.30
2018-06-15T12:44:36.179Z,6.27
2018-06-15T12:47:04.497Z,4.40
2018-06-15T12:49:32.740Z,7.70
2018-06-15T12:52:00.943Z,4.43
2018-06-15T12:54:29.117Z,7.53
2018-06-15T12:56:57.246Z,4.40
2018-06-15T12:59:25.187Z,4.53
2018-06-15T13:01:53.466Z,5.93
2018-06-15T13:04:21.620Z,7.93
2018-06-15T13:06:49.851Z,4.20
2018-06-15T13:09:18.135Z,4.57
2018-06-15T13:11:46.350Z,3.40
2018-06-15T13:14:14.657Z,6.37
2018-06-15T13:16:42.710Z,5.00
2018-06-15T13:19:10.825Z,4.33
2018-06-15T13:21:38.770Z,5.47
2018-06-15T13:24:07.827Z,8.07
2018-06-15T13:26:36.049Z,4.93
2018-06-15T13:29:04.211Z,4.70
2018-06-15T13:31:32.580Z,5.60
2018-06-15T13:34:00.865Z,4.00
2018-06-15T13:36:29.094Z,4.07
2018-06-15T13:38:57.483Z,4.03
2018-06-15T13:41:25.817Z,4.60
2018-06-15T13:43:53.967Z,4.97
2018-06-15T13:46:22.123Z,2.90
2018-06-15T13:48:50.440Z,7.77
2018-06-15T13:51:18.692Z,5.30
2018-06-15T13:53:46.890Z,3.40
2018-06-15T13:56:15.045Z,4.20
2018-06-15T13:58:43.345Z,4.20
2018-06-15T14:01:11.647Z,2.80
2018-06-15T14:03:40.752Z,7.87
2018-06-15T14:06:09.199Z,3.63
2018-06-15T14:08:38.042Z,4.80
2018-06-15T14:11:06.345Z,3.90
2018-06-15T14:13:34.628Z,7.17
2018-06-15T14:16:02.771Z,3.10
2018-06-15T14:18:31.067Z,4.67
2018-06-15T14:20:59.237Z,8.27
2018-06-15T14:23:27.562Z,2.90
2018-06-15T14:25:56.585Z,5.37
2018-06-15T14:28:24.911Z,6.13
2018-06-15T14:30:53.943Z,3.63
2018-06-15T14:33:23.490Z,8.13
2018-06-15T14:35:52.867Z,5.50
2018-06-15T14:38:22.629Z,7.30
2018-06-15T14:40:50.980Z,5.77
2018-06-15T14:43:19.298Z,5.87
2018-06-15T14:45:47.630Z,5.00
2018-06-15T14:48:15.903Z,11.83
2018-06-15T14:50:44.109Z,5.50
2018-06-15T14:53:12.647Z,5.43
2018-06-15T14:55:40.810Z,4.90
2018-06-15T14:58:09.032Z,3.80
2018-06-15T15:00:37.308Z,2.80
2018-06-15T15:03:05.718Z,7.20
2018-06-15T15:05:33.968Z,7.23
2018-06-15T15:08:02.830Z,5.80
2018-06-15T15:10:31.139Z,3.73
2018-06-15T15:12:59.355Z,3.80
2018-06-15T15:15:27.835Z,7.93
2018-06-15T15:17:56.092Z,7.80
2018-06-15T15:20:24.267Z,4.50
2018-06-15T15:22:52.607Z,5.17
2018-06-15T15:25:20.883Z,5.23
2018-06-15T15:27:49.168Z,3.73
2018-06-15T15:30:17.477Z,7.23
2018-06-15T15:32:45.531Z,3.87
2018-06-15T15:35:14.713Z,4.40
2018-06-15T15:37:43.448Z,8.17
2018-06-15T15:40:12.039Z,8.63
2018-06-15T15:42:40.539Z,3.37
2018-06-15T15:45:08.855Z,5.27
2018-06-15T15:47:37.166Z,4.67
2018-06-15T15:50:05.531Z,4.70
2018-06-15T15:52:33.760Z,4.50
2018-06-15T15:55:01.972Z,4.47
2018-06-15T15:57:30.233Z,5.83
2018-06-15T15:59:58.376Z,8.43
2018-06-15T16:02:27.184Z,5.30
2018-06-15T16:04:55.426Z,6.80
2018-06-15T16:07:23.642Z,5.23
2018-06-15T16:09:51.970Z,5.00
2018-06-15T16:12:20.354Z,5.17
2018-06-15T16:14:48.898Z,9.00
2018-06-15T16:17:17.013Z,6.87
2018-06-15T16:19:45.487Z,5.40
2018-06-15T16:22:13.692Z,4.70
2018-06-15T16:24:41.896Z,8.07
2018-06-15T16:27:10.101Z,4.30
2018-06-15T16:29:38.402Z,4.50
2018-06-15T16:32:06.567Z,4.90
2018-06-15T16:34:35.352Z,4.23
2018-06-15T16:37:04.237Z,7.20
2018-06-15T16:39:32.637Z,5.43
2018-06-15T16:42:00.974Z,9.10
2018-06-15T16:44:29.092Z,5.30
2018-06-15T16:46:57.366Z,6.20
2018-06-15T16:49:25.526Z,11.23
2018-06-15T16:51:54.024Z,4.37
2018-06-15T16:54:22.253Z,3.60
2018-06-15T16:56:51.538Z,5.10
2018-06-15T16:59:19.757Z,4.33
2018-06-15T17:01:47.952Z,8.60
2018-06-15T17:04:16.169Z,6.87
2018-06-15T17:06:44.364Z,5.60
2018-06-15T17:09:12.694Z,4.37
2018-06-15T17:11:40.637Z,4.80
2018-06-15T17:14:08.765Z,5.27
2018-06-15T17:16:36.885Z,7.83
2018-06-15T17:19:05.133Z,10.03
2018-06-15T17:21:33.431Z,8.33
2018-06-15T17:24:01.649Z,3.70
2018-06-15T17:26:30.092Z,4.60
2018-06-15T17:28:58.264Z,5.73
2018-06-15T17:31:26.453Z,7.67
2018-06-15T17:33:54.604Z,4.77
2018-06-15T17:36:22.808Z,10.97
2018-06-15T17:38:50.953Z,4.90
2018-06-15T17:41:19.124Z,3.97
2018-06-15T17:43:47.261Z,4.50
2018-06-15T17:46:15.452Z,4.23
2018-06-15T17:48:43.773Z,5.40
2018-06-15T17:51:12.073Z,4.70
2018-06-15T17:53:40.516Z,6.50
2018-06-15T17:56:08.667Z,4.63
2018-06-15T17:58:36.822Z,9.43
2018-06-15T18:01:05.046Z,5.53
2018-06-15T18:03:33.495Z,5.30
2018-06-15T18:06:01.681Z,4.63
2018-06-15T18:08:29.852Z,6.43
2018-06-15T18:10:58.016Z,5.80
2018-06-15T18:13:26.158Z,4.33
2018-06-15T18:15:54.411Z,5.60
2018-06-15T18:18:22.573Z,4.60
2018-06-15T18:20:50.871Z,3.90
2018-06-15T18:23:19.780Z,5.03
2018-06-15T18:25:48.414Z,6.27
2018-06-15T18:28:16.715Z,7.90
2018-06-15T18:30:44.977Z,12.10
2018-06-15T18:33:13.127Z,4.93
2018-06-15T18:35:41.484Z,7.17
2018-06-15T18:38:09.640Z,6.03
2018-06-15T18:40:37.799Z,5.60
2018-06-15T18:43:06.171Z,5.43
2018-06-15T18:45:34.374Z,5.47
2018-06-15T18:48:02.672Z,5.40
2018-06-15T18:50:30.861Z,3.87
2018-06-15T18:52:59.217Z,4.40
2018-06-15T18:55:27.356Z,7.77
2018-06-15T18:57:55.632Z,4.83
2018-06-15T19:00:23.972Z,4.20
2018-06-15T19:02:52.155Z,5.33
2018-06-15T19:05:20.352Z,5.30
2018-06-15T19:07:48.782Z,4.43
2018-06-15T19:10:16.903Z,4.63
2018-06-15T19:12:45.237Z,6.73
2018-06-15T19:15:13.175Z,5.30
2018-06-15T19:17:41.541Z,5.63
2018-06-15T19:20:09.706Z,6.60
2018-06-15T19:22:37.897Z,5.80
2018-06-15T19:25:06.101Z,8.00
2018-06-15T19:27:34.389Z,4.27
2018-06-15T19:30:02.732Z,6.53
2018-06-15T19:32:30.938Z,5.20
2018-06-15T19:34:59.179Z,6.00
2018-06-15T19:37:27.338Z,10.37
2018-06-15T19:39:55.600Z,5.33
2018-06-15T19:42:23.783Z,5.40
2018-06-15T19:44:51.936Z,7.57
2018-06-15T19:47:20.099Z,4.93
2018-06-15T19:49:48.318Z,5.20
2018-06-15T19:52:16.970Z,6.60
2018-06-15T19:54:45.250Z,4.97
2018-06-15T19:57:13.517Z,7.80
2018-06-15T19:59:41.684Z,6.00
2018-06-15T20:02:09.941Z,11.33
2018-06-15T20:04:38.318Z,6.60
2018-06-15T20:07:06.513Z,6.50
2018-06-15T20:09:34.822Z,5.30
2018-06-15T20:12:03.047Z,6.27
2018-06-15T20:14:31.720Z,8.63
2018-06-15T20:16:59.888Z,7.17
2018-06-15T20:19:28.032Z,5.83
2018-06-15T20:21:56.194Z,8.23
2018-06-15T20:24:24.312Z,5.50
2018-06-15T20:26:52.492Z,10.20
2018-06-15T20:29:20.737Z,8.03
2018-06-15T20:31:49.244Z,7.90
2018-06-15T20:34:17.450Z,6.40
2018-06-15T20:36:45.610Z,6.83
2018-06-15T20:39:13.792Z,8.83
2018-06-15T20:41:41.964Z,8.93
2018-06-15T20:44:10.266Z,6.07
2018-06-15T20:46:38.289Z,6.30
2018-06-15T20:49:06.557Z,5.30
2018-06-15T20:51:34.832Z,14.27
2018-06-15T20:54:04.549Z,7.23
2018-06-15T20:56:32.552Z,6.70
2018-06-15T20:59:00.725Z,6.43
2018-06-15T21:01:29.036Z,9.00
2018-06-15T21:03:57.527Z,7.43
2018-06-15T21:06:25.713Z,8.23
2018-06-15T21:08:53.838Z,6.70
2018-06-15T21:11:21.994Z,10.77
2018-06-15T21:13:50.301Z,6.47
2018-06-15T21:16:18.491Z,6.77
2018-06-15T21:18:46.722Z,5.90
2018-06-15T21:21:15.095Z,9.27
2018-06-15T21:23:43.234Z,6.53
2018-06-15T21:26:11.546Z,8.10
2018-06-15T21:28:39.687Z,9.67
2018-06-15T21:31:07.892Z,6.60
2018-06-15T21:33:36.341Z,8.00
2018-06-15T21:36:04.860Z,7.37
2018-06-15T21:38:33.223Z,9.77
2018-06-15T21:41:01.897Z,7.47
2018-06-15T21:43:30.125Z,11.07
2018-06-15T21:45:58.327Z,7.33
2018-06-15T21:48:26.697Z,11.23
2018-06-15T21:50:54.801Z,5.00
2018-06-15T21:53:24.033Z,5.13
2018-06-15T21:55:52.178Z,6.13
2018-06-15T21:58:20.355Z,8.17
2018-06-15T22:00:48.467Z,6.10
2018-06-15T22:03:16.650Z,6.20
2018-06-15T22:05:44.948Z,9.43
2018-06-15T22:08:13.106Z,6.10
2018-06-15T22:10:41.125Z,5.63
2018-06-15T22:13:09.274Z,5.90
2018-06-15T22:15:37.217Z,5.13
2018-06-15T22:18:05.672Z,7.73
2018-06-15T22:20:33.936Z,6.17
2018-06-15T22:23:03.050Z,5.57
2018-06-15T22:25:31.453Z,8.30
2018-06-15T22:27:59.607Z,7.33
2018-06-15T22:30:27.781Z,8.13
2018-06-15T22:32:56.025Z,7.80
2018-06-15T22:35:24.254Z,11.13
2018-06-15T22:37:52.867Z,7.40
2018-06-15T22:40:21.460Z,10.67
2018-06-15T22:42:49.811Z,7.30
2018-06-15T22:45:18.092Z,8.20
2018-06-15T22:47:46.239Z,13.83
2018-06-15T22:50:14.175Z,12.10
2018-06-15T22:52:42.298Z,7.63
2018-06-15T22:55:10.483Z,8.97
2018-06-15T22:57:38.661Z,7.27
2018-06-15T23:00:07.292Z,7.90
2018-06-15T23:02:35.695Z,10.27
2018-06-15T23:05:04.054Z,9.03
2018-06-15T23:07:32.213Z,10.43
2018-06-15T23:10:00.410Z,9.87
2018-06-15T23:12:28.531Z,9.50
2018-06-15T23:14:56.666Z,7.83
2018-06-15T23:17:24.819Z,7.90
2018-06-15T23:19:53.082Z,12.50
2018-06-15T23:22:21.557Z,10.33
2018-06-15T23:24:49.555Z,10.90
2018-06-15T23:27:17.789Z,11.10
2018-06-15T23:29:45.928Z,7.60
2018-06-15T23:32:14.099Z,8.27
2018-06-15T23:34:42.240Z,7.23
2018-06-15T23:37:10.641Z,12.70
2018-06-15T23:39:38.780Z,11.00
2018-06-15T23:42:07.922Z,8.50
2018-06-15T23:44:36.527Z,8.50
2018-06-15T23:47:04.731Z,7.60
2018-06-15T23:49:32.878Z,8.17
2018-06-15T23:52:01.019Z,9.40
2018-06-15T23:54:29.188Z,8.40
2018-06-15T23:56:57.494Z,8.70
2018-06-15T23:59:25.509Z,8.87
